Weather at Rampart Heliport

Public forecast

Using degrees Fahrenheit for public forecast. Weather courtesy of forecast.io.

Closest aviation weather report (METAR) to Rampart Heliport

Closest report is Centennial Airport, 13.6 nm (25.1 km) N. Retrieved 2020/10/31 03:53 UTC (11 minutes ago):

KAPA 310353Z 18008KT 10SM CLR 07/M02 A3001 RMK AO2 SLP139 T00721017

Closest aviation forecast (TAF) to Rampart Heliport

Closest forecast is Centennial Airport, 13.6 nm (25.1 km) N. Retrieved 2020-10-31 00:22 UTC (4 hours ago):

TAF KAPA 302320Z 3100/3124 17010KT P6SM FEW220 FM310200 VRB05KT P6SM FEW220 FM310400 19008KT P6SM FEW220 FM311500 31012G21KT P6SM SCT220 FM311700 02013G26KT P6SM SCT220 FM312300 07010KT P6SM FEW220